Time;durP1;ratioP1;P1;durP2;ratioP2;P2;SDS_P1;SDS_P2;PMS_P1;PMS_P2;Temp;Humidity;BMP_temperature;BMP_pressure;BME280_temperature;BME280_humidity;BME280_pressure;Samples;Min_cycle;Max_cycle;Signal;HPM_P1;HPM_P2
2022/08/31 00:03:58;;;;;;;9.15;2.50;;;16.90;99.90;;;;;;4939399;29;20078;-82
2022/08/31 00:06:24;;;;;;;6.70;2.53;;;16.80;99.90;;;;;;4930786;29;20020;-82
2022/08/31 00:08:50;;;;;;;6.45;2.70;;;16.80;99.90;;;;;;4936059;29;20058;-82
2022/08/31 00:11:17;;;;;;;5.60;2.20;;;16.70;99.90;;;;;;4934149;29;20015;-82
2022/08/31 00:13:43;;;;;;;8.85;2.75;;;16.80;99.90;;;;;;4936636;29;20035;-82
2022/08/31 00:16:10;;;;;;;6.10;2.42;;;16.60;99.90;;;;;;4953445;29;20382;-82
2022/08/31 00:18:37;;;;;;;6.25;2.60;;;16.70;99.90;;;;;;4930378;29;20063;-82
2022/08/31 00:21:03;;;;;;;6.47;2.40;;;16.60;99.90;;;;;;4941441;29;20646;-82
2022/08/31 00:23:29;;;;;;;8.10;2.70;;;16.70;99.90;;;;;;4933586;29;20094;-82
2022/08/31 00:25:56;;;;;;;5.60;2.08;;;16.60;99.90;;;;;;4953599;29;20047;-82
2022/08/31 00:28:22;;;;;;;7.30;2.40;;;16.60;99.90;;;;;;4953966;29;20144;-82
2022/08/31 00:30:48;;;;;;;8.05;2.25;;;16.50;99.90;;;;;;4934687;29;20040;-82
2022/08/31 00:33:14;;;;;;;6.05;2.30;;;16.50;99.90;;;;;;4939452;28;20098;-83
2022/08/31 00:35:41;;;;;;;7.85;2.17;;;16.50;99.90;;;;;;4936273;29;20022;-82
2022/08/31 00:38:08;;;;;;;7.38;2.05;;;16.50;99.90;;;;;;4937862;29;20028;-82
2022/08/31 00:40:35;;;;;;;7.25;2.10;;;16.50;99.90;;;;;;4937403;29;20078;-82
2022/08/31 00:43:01;;;;;;;6.95;2.22;;;16.40;99.90;;;;;;4936577;29;20024;-82
2022/08/31 00:45:27;;;;;;;9.43;2.30;;;16.30;99.90;;;;;;4953190;29;20086;-82
2022/08/31 00:47:54;;;;;;;7.45;2.30;;;16.30;99.90;;;;;;4934068;29;20023;-82
2022/08/31 00:50:22;;;;;;;6.90;2.03;;;16.40;99.90;;;;;;4935433;29;20023;-82
2022/08/31 00:52:58;;;;;;;5.57;1.92;;;16.50;99.90;;;;;;4940141;29;20027;-82
2022/08/31 00:55:31;;;;;;;7.05;2.00;;;16.40;99.90;;;;;;4950486;29;20090;-82
2022/08/31 00:58:02;;;;;;;5.20;2.00;;;16.40;99.90;;;;;;4934706;29;20031;-82
2022/08/31 01:00:29;;;;;;;6.82;1.98;;;16.40;99.90;;;;;;4918911;29;20027;-82
2022/08/31 01:02:58;;;;;;;5.68;2.15;;;16.30;99.90;;;;;;4928920;28;20110;-82
2022/08/31 01:05:24;;;;;;;4.82;1.80;;;16.30;99.90;;;;;;4932964;29;20095;-82
2022/08/31 01:07:50;;;;;;;4.75;1.80;;;16.30;99.90;;;;;;4933831;29;20041;-82
2022/08/31 01:10:20;;;;;;;5.10;1.80;;;16.30;99.90;;;;;;4936353;29;20039;-83
2022/08/31 01:12:46;;;;;;;5.93;1.87;;;16.20;99.90;;;;;;4949102;29;20848;-83
2022/08/31 01:15:14;;;;;;;5.53;1.92;;;16.20;99.90;;;;;;4936540;29;20024;-82
2022/08/31 01:17:41;;;;;;;5.72;1.92;;;16.10;99.90;;;;;;4935613;29;20633;-82
2022/08/31 01:20:47;;;;;;;7.43;2.00;;;16.10;99.90;;;;;;4934402;29;20450;-82
2022/08/31 01:23:41;;;;;;;6.75;2.17;;;16.10;99.90;;;;;;4928311;29;20056;-83
2022/08/31 01:26:11;;;;;;;5.95;1.90;;;16.10;99.90;;;;;;4927419;29;20104;-82
2022/08/31 01:28:37;;;;;;;5.72;1.98;;;16.10;99.90;;;;;;4931111;29;20058;-82
2022/08/31 01:31:09;;;;;;;5.93;2.05;;;16.10;99.90;;;;;;4934686;29;20431;-82
2022/08/31 01:33:37;;;;;;;5.18;2.00;;;16.20;99.90;;;;;;4949402;29;20024;-82
2022/08/31 01:36:05;;;;;;;5.68;1.80;;;16.20;99.90;;;;;;4934581;29;20479;-82
2022/08/31 01:38:33;;;;;;;6.13;1.83;;;16.30;99.90;;;;;;4931634;28;20038;-82
2022/08/31 01:41:01;;;;;;;6.25;2.03;;;16.20;99.90;;;;;;4936897;29;20035;-82
2022/08/31 01:43:28;;;;;;;5.03;2.22;;;16.20;99.90;;;;;;4946366;28;20043;-82
2022/08/31 01:45:54;;;;;;;6.20;1.80;;;16.30;99.90;;;;;;4933481;29;20043;-82
2022/08/31 01:48:21;;;;;;;5.35;1.80;;;16.30;99.90;;;;;;4936156;29;20557;-82
2022/08/31 01:50:47;;;;;;;5.50;2.30;;;16.20;99.90;;;;;;4935570;29;20033;-82
2022/08/31 01:53:13;;;;;;;5.30;1.90;;;16.30;99.90;;;;;;4932874;29;20027;-82
2022/08/31 01:55:39;;;;;;;6.82;1.88;;;16.10;99.90;;;;;;4931247;29;20439;-82
2022/08/31 01:58:05;;;;;;;5.63;2.10;;;16.20;99.90;;;;;;4954866;29;20120;-82
2022/08/31 02:00:32;;;;;;;8.02;2.20;;;16.20;99.90;;;;;;4933411;29;20112;-82
2022/08/31 02:02:59;;;;;;;6.93;2.20;;;16.10;99.90;;;;;;4933626;29;20377;-82
2022/08/31 02:05:27;;;;;;;8.43;2.22;;;16.10;99.90;;;;;;4930048;29;20056;-82
2022/08/31 02:07:53;;;;;;;4.65;1.80;;;16.10;99.90;;;;;;4935548;29;20019;-82
2022/08/31 02:10:18;;;;;;;8.00;1.80;;;16.20;99.90;;;;;;4928570;29;20511;-82
2022/08/31 02:12:44;;;;;;;4.88;1.90;;;16.10;99.90;;;;;;4934636;28;20024;-82
2022/08/31 02:15:10;;;;;;;6.25;2.30;;;16.00;99.90;;;;;;4948155;28;20027;-82
2022/08/31 02:17:36;;;;;;;7.22;2.05;;;16.10;99.90;;;;;;4935461;29;20495;-82
2022/08/31 02:20:04;;;;;;;6.20;2.00;;;16.00;99.90;;;;;;4935067;29;20047;-83
2022/08/31 02:22:29;;;;;;;7.15;2.20;;;16.00;99.90;;;;;;4933712;29;20035;-83
2022/08/31 02:24:55;;;;;;;4.93;2.00;;;16.10;99.90;;;;;;4951306;29;20027;-83
2022/08/31 02:27:20;;;;;;;5.13;2.00;;;16.00;99.90;;;;;;4946771;29;20491;-82
2022/08/31 02:29:46;;;;;;;4.57;1.70;;;16.10;99.90;;;;;;4934515;29;20040;-82
2022/08/31 02:32:12;;;;;;;5.78;2.20;;;16.10;99.90;;;;;;4949188;28;20023;-82
2022/08/31 02:34:39;;;;;;;4.97;2.00;;;16.20;99.90;;;;;;4936097;29;20035;-82
2022/08/31 02:37:05;;;;;;;5.10;2.00;;;16.20;99.90;;;;;;4950504;28;20051;-83
2022/08/31 02:39:31;;;;;;;4.93;1.70;;;16.30;99.90;;;;;;4935382;29;20488;-82
2022/08/31 02:41:58;;;;;;;6.55;1.90;;;16.40;99.90;;;;;;4937022;29;20078;-82
2022/08/31 02:44:24;;;;;;;4.95;1.90;;;16.40;99.90;;;;;;4946049;29;20019;-82
2022/08/31 02:46:49;;;;;;;6.25;1.92;;;16.40;99.90;;;;;;4931876;29;20067;-82
2022/08/31 02:49:16;;;;;;;5.93;1.98;;;16.40;99.90;;;;;;4931926;29;20487;-82
2022/08/31 02:51:42;;;;;;;5.80;1.98;;;16.40;99.90;;;;;;4924218;29;20114;-82
2022/08/31 02:54:10;;;;;;;5.90;1.90;;;16.40;99.90;;;;;;4954850;29;20430;-82
2022/08/31 02:56:35;;;;;;;5.88;2.00;;;16.40;99.90;;;;;;4940621;28;20027;-82
2022/08/31 02:59:01;;;;;;;6.22;2.08;;;16.40;99.90;;;;;;4953309;29;20470;-82
2022/08/31 03:01:27;;;;;;;4.88;1.92;;;16.40;99.90;;;;;;4949568;28;20046;-82
2022/08/31 03:03:53;;;;;;;5.75;1.90;;;16.40;99.90;;;;;;4925969;29;20119;-82
2022/08/31 03:06:19;;;;;;;8.57;2.10;;;16.40;99.90;;;;;;4918092;29;20055;-82
2022/08/31 03:08:46;;;;;;;4.75;1.95;;;16.30;99.90;;;;;;4934699;29;20594;-82
2022/08/31 03:11:12;;;;;;;5.25;2.22;;;16.30;99.90;;;;;;4917027;29;20039;-82
2022/08/31 03:13:39;;;;;;;6.82;2.00;;;16.30;99.90;;;;;;4916436;29;20032;-82
2022/08/31 03:16:05;;;;;;;7.53;2.00;;;16.30;99.90;;;;;;4913299;29;20055;-82
2022/08/31 03:18:31;;;;;;;7.10;2.45;;;16.20;99.90;;;;;;4913604;29;20144;-82
2022/08/31 03:20:57;;;;;;;6.70;2.25;;;16.20;99.90;;;;;;4918529;29;20056;-82
2022/08/31 03:23:23;;;;;;;7.20;1.95;;;16.10;99.90;;;;;;4930132;29;20031;-82
2022/08/31 03:25:48;;;;;;;6.32;2.25;;;16.20;99.90;;;;;;4931103;29;20028;-82
2022/08/31 03:28:15;;;;;;;5.45;1.92;;;16.10;99.90;;;;;;4918641;29;20079;-82
2022/08/31 03:30:41;;;;;;;8.95;2.20;;;16.10;99.90;;;;;;4930473;29;20024;-82
2022/08/31 03:33:07;;;;;;;6.60;2.33;;;16.10;99.90;;;;;;4937495;29;20031;-82
2022/08/31 03:35:33;;;;;;;5.72;1.92;;;16.00;99.90;;;;;;4916006;29;20027;-82
2022/08/31 03:38:01;;;;;;;6.53;1.90;;;16.10;99.90;;;;;;4917071;29;20024;-82
2022/08/31 03:40:27;;;;;;;5.30;1.90;;;16.10;99.90;;;;;;4933142;29;20393;-82
2022/08/31 03:42:55;;;;;;;7.50;2.42;;;16.10;99.90;;;;;;4895267;29;20103;-82
2022/08/31 03:45:20;;;;;;;7.40;2.30;;;16.10;99.90;;;;;;4915694;29;20036;-82
2022/08/31 03:47:46;;;;;;;6.57;2.10;;;16.10;99.90;;;;;;4917943;29;20020;-82
2022/08/31 03:50:12;;;;;;;5.95;2.10;;;16.20;99.90;;;;;;4917374;29;20035;-82
2022/08/31 03:52:38;;;;;;;6.85;2.20;;;16.20;99.90;;;;;;4917746;29;20020;-82
2022/08/31 03:55:06;;;;;;;6.07;2.30;;;16.20;99.90;;;;;;4918260;29;20027;-82
2022/08/31 03:57:33;;;;;;;5.10;1.90;;;16.20;99.90;;;;;;4921956;29;20042;-82
2022/08/31 03:59:59;;;;;;;5.97;1.95;;;16.20;99.90;;;;;;4916007;29;20050;-82
2022/08/31 04:02:25;;;;;;;4.93;2.20;;;16.20;99.90;;;;;;4933784;29;20024;-82
2022/08/31 04:04:52;;;;;;;7.32;2.38;;;16.10;99.90;;;;;;4938300;29;20439;-83
2022/08/31 04:07:19;;;;;;;6.82;2.17;;;16.10;99.90;;;;;;4934561;29;20456;-83
2022/08/31 04:09:46;;;;;;;5.10;2.10;;;16.20;99.90;;;;;;4949093;29;20043;-82
2022/08/31 04:12:12;;;;;;;6.60;2.13;;;16.20;99.90;;;;;;4935902;29;20023;-83
2022/08/31 04:14:37;;;;;;;6.88;1.98;;;16.20;99.90;;;;;;4938297;29;20031;-83
2022/08/31 04:17:03;;;;;;;5.22;2.10;;;16.10;99.90;;;;;;4952536;28;20050;-82
2022/08/31 04:19:29;;;;;;;5.85;2.20;;;16.10;99.90;;;;;;4938825;29;20522;-82
2022/08/31 04:21:56;;;;;;;6.80;2.35;;;16.00;99.90;;;;;;4938954;29;20039;-82
2022/08/31 04:24:22;;;;;;;6.85;2.22;;;16.10;99.90;;;;;;4937361;29;20420;-83
2022/08/31 04:26:50;;;;;;;6.40;2.35;;;16.10;99.90;;;;;;4937828;29;20055;-83
2022/08/31 04:29:16;;;;;;;6.28;2.20;;;16.00;99.90;;;;;;4937526;29;20051;-82
2022/08/31 04:31:42;;;;;;;5.85;2.17;;;16.00;99.90;;;;;;4936178;28;20028;-83
2022/08/31 04:34:08;;;;;;;5.88;2.20;;;16.10;99.90;;;;;;4951585;28;20050;-83
2022/08/31 04:36:34;;;;;;;7.32;2.30;;;16.00;99.90;;;;;;4947152;29;20038;-83
2022/08/31 04:39:02;;;;;;;7.28;2.38;;;16.10;99.90;;;;;;4935561;29;20076;-82
2022/08/31 04:41:30;;;;;;;8.60;2.47;;;16.10;99.90;;;;;;4934534;29;20036;-82
2022/08/31 04:43:58;;;;;;;6.70;2.38;;;16.00;99.90;;;;;;4937104;28;20368;-82
2022/08/31 04:46:25;;;;;;;6.93;2.22;;;16.00;99.90;;;;;;4936763;28;20695;-82
2022/08/31 04:48:51;;;;;;;5.78;2.38;;;15.90;99.90;;;;;;4934820;29;20024;-83
2022/08/31 04:51:20;;;;;;;6.47;1.98;;;15.90;99.90;;;;;;4942607;29;20027;-82
2022/08/31 04:53:46;;;;;;;5.77;2.00;;;16.10;99.90;;;;;;4937268;29;20023;-82
2022/08/31 04:56:18;;;;;;;7.57;2.53;;;16.20;99.90;;;;;;4953172;28;20487;-82
2022/08/31 04:58:47;;;;;;;5.95;2.63;;;16.10;99.90;;;;;;4940392;29;20114;-82
2022/08/31 05:01:17;;;;;;;8.47;2.70;;;15.90;99.90;;;;;;4935074;29;20023;-82
2022/08/31 05:03:43;;;;;;;6.85;2.30;;;15.90;99.90;;;;;;4936190;29;20299;-82
2022/08/31 05:06:17;;;;;;;7.82;2.35;;;16.00;99.90;;;;;;4939262;29;20028;-82
2022/08/31 05:08:43;;;;;;;5.97;2.35;;;15.90;99.90;;;;;;4931193;29;20027;-81
2022/08/31 05:11:14;;;;;;;6.65;2.55;;;15.90;99.90;;;;;;4928997;29;20063;-81
2022/08/31 05:13:40;;;;;;;7.47;2.38;;;15.90;99.90;;;;;;4936525;29;20043;-81
2022/08/31 05:16:11;;;;;;;6.95;2.33;;;15.80;99.90;;;;;;4951810;29;20468;-81
2022/08/31 05:18:40;;;;;;;;;;;15.80;99.90;;;;;;4936837;29;20023;-81
2022/08/31 05:21:09;;;;;;;6.83;2.03;;;15.90;99.90;;;;;;4932879;29;19918;-83
2022/08/31 05:23:35;;;;;;;6.47;2.55;;;16.00;99.90;;;;;;4932119;29;20023;-81
2022/08/31 05:26:00;;;;;;;7.97;2.40;;;15.90;99.90;;;;;;4936163;29;20027;-81
2022/08/31 05:28:26;;;;;;;7.38;2.40;;;16.00;99.90;;;;;;4953141;28;20083;-81
2022/08/31 05:30:52;;;;;;;7.80;2.47;;;16.00;99.90;;;;;;4936213;29;20483;-81
2022/08/31 05:33:17;;;;;;;9.13;2.65;;;15.90;99.90;;;;;;4950814;28;20023;-81
2022/08/31 05:35:43;;;;;;;5.70;2.20;;;15.90;99.90;;;;;;4952009;28;20037;-80
2022/08/31 05:38:10;;;;;;;6.03;2.67;;;16.00;99.90;;;;;;4933970;28;20031;-81
2022/08/31 05:40:35;;;;;;;5.32;2.30;;;15.90;99.90;;;;;;4928754;29;20190;-81
2022/08/31 05:43:01;;;;;;;11.43;2.53;;;16.00;99.90;;;;;;4948831;28;20539;-81
2022/08/31 05:45:27;;;;;;;6.28;2.35;;;16.10;99.90;;;;;;4935415;28;20032;-81
2022/08/31 05:47:53;;;;;;;5.82;2.38;;;16.20;99.90;;;;;;4929249;29;20035;-81
2022/08/31 05:50:18;;;;;;;6.40;2.20;;;16.20;99.90;;;;;;4936632;29;20479;-80
2022/08/31 05:52:44;;;;;;;7.88;2.90;;;16.20;99.90;;;;;;4929319;29;20051;-81
2022/08/31 05:55:13;;;;;;;7.75;2.55;;;16.10;99.90;;;;;;4935043;29;20074;-80
2022/08/31 05:57:39;;;;;;;6.82;2.28;;;16.00;99.90;;;;;;4936002;29;20032;-81
2022/08/31 06:00:09;;;;;;;13.40;3.42;;;15.90;99.90;;;;;;4932416;28;20023;-81
2022/08/31 06:02:35;;;;;;;;;;;16.00;99.90;;;;;;4948500;29;20060;-79
2022/08/31 06:05:01;;;;;;;6.82;2.42;;;16.10;99.90;;;;;;4940688;29;19927;-80
2022/08/31 06:07:27;;;;;;;8.35;2.85;;;16.10;99.90;;;;;;4942516;29;20412;-82
2022/08/31 06:09:53;;;;;;;5.28;2.20;;;16.30;99.90;;;;;;4941937;28;20039;-80
2022/08/31 06:12:19;;;;;;;10.05;2.45;;;16.30;99.90;;;;;;4926332;29;20028;-80
2022/08/31 06:14:45;;;;;;;6.13;2.53;;;16.20;99.90;;;;;;4926981;28;20027;-80
2022/08/31 06:17:12;;;;;;;9.98;2.80;;;16.20;99.90;;;;;;4935520;29;20031;-80
2022/08/31 06:19:38;;;;;;;6.97;2.70;;;16.30;99.90;;;;;;4935245;29;20023;-80
2022/08/31 06:22:04;;;;;;;5.90;2.60;;;16.30;99.90;;;;;;4949582;29;20024;-80
2022/08/31 06:24:30;;;;;;;8.60;2.55;;;16.40;99.90;;;;;;4934446;29;20023;-80
2022/08/31 06:27:01;;;;;;;8.25;3.00;;;16.40;99.90;;;;;;4945532;28;20055;-80
2022/08/31 06:29:30;;;;;;;11.68;2.60;;;16.50;99.90;;;;;;4928419;28;20482;-80
2022/08/31 06:31:55;;;;;;;7.78;2.78;;;16.60;99.90;;;;;;4926048;29;20603;-80
2022/08/31 06:34:22;;;;;;;7.80;2.50;;;16.50;99.90;;;;;;4927258;29;20126;-80
2022/08/31 06:36:48;;;;;;;6.43;2.50;;;16.70;99.90;;;;;;4931783;29;20035;-79
2022/08/31 06:39:14;;;;;;;5.95;2.47;;;16.70;99.90;;;;;;4924077;28;20199;-80
2022/08/31 06:41:40;;;;;;;8.90;2.75;;;16.90;99.90;;;;;;4942606;28;20074;-80
2022/08/31 06:44:10;;;;;;;7.78;2.67;;;16.90;99.90;;;;;;4928516;29;20080;-80
2022/08/31 06:46:37;;;;;;;6.35;2.30;;;17.10;99.90;;;;;;4942681;29;20031;-80
2022/08/31 06:49:04;;;;;;;5.80;2.50;;;17.10;99.90;;;;;;4949802;29;20090;-80
2022/08/31 06:51:35;;;;;;;6.97;2.70;;;17.30;99.90;;;;;;4927225;29;20038;-80
2022/08/31 06:54:02;;;;;;;9.10;2.60;;;17.60;99.90;;;;;;4924508;29;20028;-80
2022/08/31 06:56:27;;;;;;;7.05;2.90;;;17.40;99.90;;;;;;4940358;29;20034;-80
2022/08/31 06:58:53;;;;;;;5.95;2.80;;;17.60;99.90;;;;;;4928237;29;20019;-80
2022/08/31 07:01:22;;;;;;;8.60;2.72;;;17.60;99.90;;;;;;4925174;29;20399;-80
2022/08/31 07:03:49;;;;;;;8.07;2.65;;;17.60;99.90;;;;;;4942063;29;20060;-81
2022/08/31 07:06:16;;;;;;;5.68;2.15;;;17.60;99.90;;;;;;4940974;28;20027;-80
2022/08/31 07:08:44;;;;;;;7.55;2.58;;;17.70;99.90;;;;;;4928841;29;20034;-80
2022/08/31 07:11:16;;;;;;;7.35;3.08;;;18.00;99.90;;;;;;4930644;29;20031;-80
2022/08/31 07:13:42;;;;;;;8.10;2.80;;;18.20;99.90;;;;;;4927889;29;20122;-80
2022/08/31 07:16:16;;;;;;;6.82;2.63;;;18.10;99.90;;;;;;4944610;28;20119;-80
2022/08/31 07:18:43;;;;;;;7.97;2.70;;;18.20;99.90;;;;;;4928621;29;20110;-80
2022/08/31 07:21:15;;;;;;;7.22;2.53;;;17.90;99.90;;;;;;4947100;28;20098;-80
2022/08/31 07:23:41;;;;;;;7.38;2.53;;;17.90;99.90;;;;;;4929613;29;20023;-80
2022/08/31 07:26:10;;;;;;;6.35;2.47;;;18.00;99.90;;;;;;4950694;29;20121;-80
2022/08/31 07:28:38;;;;;;;8.05;2.40;;;18.30;99.90;;;;;;4946345;28;20054;-80
2022/08/31 07:31:04;;;;;;;9.55;3.00;;;18.60;99.90;;;;;;4936612;29;20060;-80
2022/08/31 07:33:38;;;;;;;8.45;2.90;;;18.40;99.90;;;;;;4934737;29;20023;-80
2022/08/31 07:36:06;;;;;;;6.78;2.90;;;18.50;99.90;;;;;;4934963;28;20028;-80
2022/08/31 07:42:08;;;;;;;9.00;2.70;;;18.20;99.90;;;;;;4946958;28;20058;-80
2022/08/31 07:44:22;;;;;;;10.48;2.78;;;18.30;99.90;;;;;;4949073;28;20674;-80
2022/08/31 07:46:49;;;;;;;7.75;2.60;;;18.40;99.90;;;;;;4951480;29;20026;-80
2022/08/31 07:49:16;;;;;;;6.53;2.80;;;18.00;99.90;;;;;;4933882;29;20032;-80
2022/08/31 07:51:50;;;;;;;8.63;2.78;;;18.10;99.90;;;;;;4933922;28;20034;-80
2022/08/31 07:54:22;;;;;;;6.80;2.50;;;18.40;99.90;;;;;;4935617;28;20032;-81
2022/08/31 07:56:50;;;;;;;8.45;2.88;;;18.70;99.90;;;;;;4934524;28;20055;-81
2022/08/31 07:59:18;;;;;;;6.82;2.70;;;19.00;99.90;;;;;;4936713;28;20027;-80
2022/08/31 08:01:44;;;;;;;7.35;2.65;;;19.10;99.90;;;;;;4935770;29;20023;-80
2022/08/31 08:04:17;;;;;;;8.70;2.80;;;19.30;99.90;;;;;;4954173;29;20414;-81
2022/08/31 08:06:43;;;;;;;6.93;2.58;;;19.40;99.90;;;;;;4937238;29;20023;-80
2022/08/31 08:09:10;;;;;;;6.30;2.70;;;19.30;99.90;;;;;;4936663;29;20023;-80
2022/08/31 08:11:40;;;;;;;7.43;2.90;;;19.50;99.90;;;;;;4933880;29;20031;-80
2022/08/31 08:14:07;;;;;;;21.63;2.95;;;19.60;99.90;;;;;;4950447;29;20114;-81
2022/08/31 08:16:32;;;;;;;6.13;2.20;;;20.00;99.90;;;;;;4951544;28;20038;-81
2022/08/31 08:18:58;;;;;;;9.40;2.90;;;20.10;99.90;;;;;;4925454;29;20027;-81
2022/08/31 08:21:25;;;;;;;8.88;2.97;;;20.30;99.90;;;;;;4946045;28;20047;-80
2022/08/31 08:23:51;;;;;;;9.23;3.10;;;20.40;99.90;;;;;;4922184;29;20032;-81
2022/08/31 08:26:17;;;;;;;7.47;2.72;;;20.30;99.90;;;;;;4932765;29;20031;-81
2022/08/31 08:28:42;;;;;;;6.53;2.70;;;20.50;99.90;;;;;;4933985;29;20043;-80
2022/08/31 08:31:23;;;;;;;8.52;2.65;;;20.60;99.90;;;;;;4935442;28;20035;-80
2022/08/31 08:33:50;;;;;;;6.57;2.50;;;20.80;99.90;;;;;;4943225;28;20167;-80
2022/08/31 08:36:18;;;;;;;7.07;3.20;;;21.10;99.90;;;;;;4936783;29;20515;-80
2022/08/31 08:38:47;;;;;;;8.75;2.85;;;20.80;99.90;;;;;;4952735;28;20031;-81
2022/08/31 08:41:25;;;;;;;6.50;2.90;;;20.30;99.90;;;;;;4926306;29;20036;-81
2022/08/31 08:43:56;;;;;;;7.72;3.20;;;20.10;99.90;;;;;;4950244;29;20119;-81
2022/08/31 08:46:46;;;;;;;8.88;3.08;;;20.00;99.90;;;;;;4945374;29;20037;-80
2022/08/31 08:49:23;;;;;;;13.38;3.53;;;19.80;99.90;;;;;;4932017;29;20023;-80
2022/08/31 08:51:54;;;;;;;7.40;3.35;;;20.00;99.90;;;;;;4947095;29;20094;-81
2022/08/31 08:54:30;;;;;;;11.55;3.28;;;20.20;99.90;;;;;;4928152;29;20086;-81
2022/08/31 08:56:58;;;;;;;7.15;2.97;;;20.20;99.90;;;;;;4935077;29;20062;-80
2022/08/31 08:59:24;;;;;;;8.10;3.53;;;20.70;99.90;;;;;;4935124;29;20034;-79
2022/08/31 09:01:56;;;;;;;7.78;3.17;;;21.00;99.90;;;;;;4950912;28;20554;-80
2022/08/31 09:04:36;;;;;;;8.77;2.90;;;21.20;99.90;;;;;;4925235;29;20130;-80
2022/08/31 09:07:29;;;;;;;7.20;3.08;;;21.70;99.90;;;;;;4926904;29;20111;-80
2022/08/31 09:10:08;;;;;;;8.43;3.40;;;21.00;99.90;;;;;;4940667;28;20046;-80
2022/08/31 09:12:53;;;;;;;9.65;3.10;;;21.20;99.90;;;;;;4947182;28;20098;-81
2022/08/31 09:15:40;;;;;;;6.72;3.00;;;22.00;99.90;;;;;;4945208;28;20030;-81
2022/08/31 09:18:25;;;;;;;8.05;3.03;;;22.50;99.90;;;;;;4942550;29;20036;-81
2022/08/31 09:21:20;;;;;;;8.15;2.83;;;22.70;99.90;;;;;;4935245;29;20038;-81
2022/08/31 09:24:11;;;;;;;9.43;3.25;;;23.40;99.90;;;;;;4930934;29;20031;-81
2022/08/31 09:26:49;;;;;;;8.45;2.70;;;23.80;99.90;;;;;;4931052;29;20106;-81
2022/08/31 09:29:27;;;;;;;9.98;3.50;;;24.70;99.90;;;;;;4933585;29;20023;-81
2022/08/31 09:32:30;;;;;;;7.95;3.30;;;23.90;99.90;;;;;;4930524;29;20091;-81
2022/08/31 09:35:00;;;;;;;9.23;2.80;;;23.60;99.90;;;;;;4941290;28;20043;-80
2022/08/31 09:37:39;;;;;;;7.28;3.00;;;24.70;99.90;;;;;;4938662;29;20055;-80
2022/08/31 09:40:18;;;;;;;8.38;3.30;;;24.50;99.90;;;;;;4944179;29;20175;-81
2022/08/31 09:42:58;;;;;;;12.25;3.10;;;24.70;99.90;;;;;;4929219;29;20036;-80
2022/08/31 09:45:28;;;;;;;;;;;24.70;99.90;;;;;;4930487;29;20336;-80
2022/08/31 09:47:59;;;;;;;8.80;2.92;;;24.50;99.90;;;;;;4928699;29;20054;-81
2022/08/31 09:50:27;;;;;;;6.70;2.90;;;24.60;99.90;;;;;;4951148;28;20030;-80
2022/08/31 09:56:23;;;;;;;6.70;2.85;;;24.30;99.90;;;;;;4948135;29;20077;-81
2022/08/31 09:59:00;;;;;;;7.90;2.67;;;24.70;99.90;;;;;;4945968;29;20105;-81
2022/08/31 10:01:43;;;;;;;7.60;2.33;;;25.60;99.40;;;;;;4934457;29;20035;-81
2022/08/31 10:04:35;;;;;;;6.05;2.63;;;27.00;97.30;;;;;;4930249;29;20066;-81
2022/08/31 10:07:06;;;;;;;7.60;3.05;;;27.60;95.40;;;;;;4930671;29;20031;-80
2022/08/31 10:09:54;;;;;;;7.85;3.00;;;27.80;94.50;;;;;;4926723;29;20031;-81
2022/08/31 10:12:42;;;;;;;8.35;3.25;;;27.60;94.70;;;;;;4947918;29;20137;-81
2022/08/31 10:15:26;;;;;;;6.60;2.60;;;25.70;96.80;;;;;;4946611;28;20030;-81
2022/08/31 10:17:56;;;;;;;9.95;3.00;;;25.60;97.00;;;;;;4939844;28;20027;-82
2022/08/31 10:20:30;;;;;;;7.10;2.58;;;25.60;97.30;;;;;;4925757;29;20151;-80
2022/08/31 10:23:20;;;;;;;7.38;2.97;;;26.00;97.10;;;;;;4932132;29;20035;-80
2022/08/31 10:25:53;;;;;;;5.95;2.58;;;26.60;96.20;;;;;;4927548;29;20496;-81
2022/08/31 10:28:36;;;;;;;7.78;2.90;;;26.60;96.00;;;;;;4923856;29;20078;-81
2022/08/31 10:31:19;;;;;;;8.98;2.80;;;26.30;96.30;;;;;;4948348;28;20031;-82
2022/08/31 10:36:44;;;;;;;7.75;3.22;;;26.40;95.60;;;;;;4946678;29;20077;-82
2022/08/31 10:39:32;;;;;;;8.20;2.80;;;25.90;96.10;;;;;;4932398;29;20028;-82
2022/08/31 10:42:04;;;;;;;8.68;3.17;;;26.80;95.30;;;;;;4925856;29;20038;-82
2022/08/31 10:44:51;;;;;;;6.07;3.00;;;27.50;94.60;;;;;;4927080;28;20521;-84
2022/08/31 10:47:18;;;;;;;11.55;2.80;;;27.90;94.10;;;;;;4950472;28;20016;-84
2022/08/31 10:49:44;;;;;;;5.63;2.40;;;27.90;93.90;;;;;;4936336;29;20042;-83
2022/08/31 10:52:31;;;;;;;8.90;3.28;;;27.90;93.60;;;;;;4931126;29;20015;-84
2022/08/31 10:55:11;;;;;;;7.13;2.83;;;27.80;93.60;;;;;;4926521;29;20038;-84
2022/08/31 10:57:57;;;;;;;9.65;3.38;;;28.00;93.50;;;;;;4933286;29;20042;-84
2022/08/31 11:00:40;;;;;;;8.95;3.17;;;26.60;94.30;;;;;;4942748;29;20031;-85
2022/08/31 11:03:21;;;;;;;8.52;3.00;;;26.10;95.40;;;;;;4927644;29;20138;-83
2022/08/31 11:06:20;;;;;;;8.05;2.88;;;26.70;95.10;;;;;;4945397;29;20031;-83
2022/08/31 11:08:56;;;;;;;8.53;2.80;;;27.30;94.40;;;;;;4941522;29;20439;-84
2022/08/31 11:11:30;;;;;;;7.53;3.03;;;26.80;94.50;;;;;;4920591;29;20110;-84
2022/08/31 11:14:32;;;;;;;6.00;2.70;;;26.80;94.50;;;;;;4943198;28;20054;-84
2022/08/31 11:17:22;;;;;;;7.60;2.70;;;27.10;94.60;;;;;;4937994;29;20130;-84
2022/08/31 11:20:23;;;;;;;7.60;2.85;;;26.60;95.00;;;;;;4924771;28;20182;-86
2022/08/31 11:23:07;;;;;;;8.70;2.85;;;26.20;95.40;;;;;;4889568;29;20118;-84
2022/08/31 11:25:46;;;;;;;8.57;2.88;;;26.30;95.40;;;;;;4875339;29;20036;-84
2022/08/31 11:28:17;;;;;;;6.90;3.10;;;27.00;94.40;;;;;;4873470;29;20037;-84
2022/08/31 11:30:45;;;;;;;8.13;2.90;;;27.30;93.90;;;;;;4885999;29;20057;-85
2022/08/31 11:33:18;;;;;;;6.38;2.78;;;26.70;94.40;;;;;;4872880;29;20033;-84
2022/08/31 11:36:07;;;;;;;8.20;3.20;;;26.90;94.20;;;;;;4875030;29;20032;-84
2022/08/31 11:38:58;;;;;;;7.82;2.85;;;27.20;94.00;;;;;;4885354;29;20032;-84
2022/08/31 11:41:33;;;;;;;8.02;2.80;;;27.50;93.60;;;;;;4873852;29;20048;-84
2022/08/31 11:44:02;;;;;;;6.80;3.22;;;26.40;94.70;;;;;;4889195;29;20021;-84
2022/08/31 11:46:37;;;;;;;8.02;3.17;;;27.50;93.70;;;;;;4876419;29;20699;-85
2022/08/31 11:49:04;;;;;;;9.15;3.25;;;28.30;92.80;;;;;;4889872;29;20516;-84
2022/08/31 11:51:41;;;;;;;7.88;3.30;;;28.60;92.20;;;;;;4874963;29;20047;-84
2022/08/31 11:54:25;;;;;;;6.53;2.95;;;27.40;92.80;;;;;;4876455;29;20083;-84
2022/08/31 11:56:53;;;;;;;7.05;2.97;;;26.00;94.50;;;;;;4893024;29;20029;-84
2022/08/31 11:59:32;;;;;;;9.25;3.40;;;26.40;94.60;;;;;;4889708;29;20039;-85
2022/08/31 12:02:19;;;;;;;10.07;3.30;;;26.00;94.60;;;;;;4933306;29;20624;-84
2022/08/31 12:04:47;;;;;;;8.43;3.13;;;26.50;94.40;;;;;;4946602;29;20562;-85
2022/08/31 12:07:16;;;;;;;7.60;2.78;;;27.50;93.90;;;;;;4932359;29;20051;-85
2022/08/31 12:09:59;;;;;;;14.35;3.33;;;29.50;92.10;;;;;;4938425;29;20136;-84
2022/08/31 12:12:36;;;;;;;7.20;2.55;;;30.00;90.60;;;;;;4933164;29;20027;-85
2022/08/31 12:15:43;;;;;;;6.60;2.85;;;29.70;90.00;;;;;;4936689;29;20085;-85
2022/08/31 12:18:15;;;;;;;7.63;2.85;;;28.90;90.40;;;;;;4934656;29;20666;-85
2022/08/31 12:24:12;;;;;;;7.63;2.90;;;26.80;92.20;;;;;;4931791;29;20153;-85
2022/08/31 12:26:38;;;;;;;6.35;2.80;;;26.90;92.20;;;;;;4933436;29;20038;-85
2022/08/31 12:34:18;;;;;;;8.57;3.23;;;27.00;92.00;;;;;;4937358;29;20055;-63
2022/08/31 12:36:44;;;;;;;7.53;2.85;;;26.40;92.40;;;;;;4942965;29;20474;-64
2022/08/31 12:39:20;;;;;;;10.05;3.20;;;26.20;92.50;;;;;;4923304;29;20055;-64
2022/08/31 12:41:50;;;;;;;7.47;2.80;;;26.20;92.50;;;;;;4936639;29;20443;-63
2022/08/31 12:44:21;;;;;;;6.28;2.90;;;26.10;93.00;;;;;;4940838;29;20419;-63
2022/08/31 12:47:09;;;;;;;8.52;3.03;;;27.30;91.90;;;;;;4938235;29;20482;-63
2022/08/31 12:49:48;;;;;;;8.95;3.20;;;28.10;91.10;;;;;;4942041;29;20557;-64
2022/08/31 12:52:35;;;;;;;7.95;2.70;;;29.50;90.20;;;;;;4939967;29;20031;-64
2022/08/31 12:55:22;;;;;;;8.43;2.80;;;30.70;87.00;;;;;;4933717;29;20063;-63
2022/08/31 12:58:11;;;;;;;6.35;2.50;;;29.90;86.30;;;;;;4936329;29;20589;-64
2022/08/31 13:00:38;;;;;;;5.80;2.50;;;29.30;86.50;;;;;;4931034;29;20030;-64
2022/08/31 13:03:23;;;;;;;6.85;2.65;;;28.60;88.80;;;;;;4935608;29;20467;-64
2022/08/31 13:06:26;;;;;;;6.82;2.70;;;29.90;87.10;;;;;;4937286;29;20031;-64
2022/08/31 13:08:53;;;;;;;6.43;2.38;;;31.50;83.40;;;;;;4900954;29;20064;-64
2022/08/31 13:11:41;;;;;;;5.07;2.10;;;32.20;82.10;;;;;;4939581;29;20030;-64
2022/08/31 13:14:25;;;;;;;11.43;2.90;;;32.90;80.70;;;;;;4938647;29;20042;-64
2022/08/31 13:17:21;;;;;;;7.85;2.90;;;31.30;82.00;;;;;;4940696;28;20370;-63
2022/08/31 13:19:51;;;;;;;6.70;2.70;;;30.40;82.80;;;;;;4922641;29;20051;-63
2022/08/31 13:22:31;;;;;;;7.40;2.80;;;29.90;83.80;;;;;;4930356;29;20130;-63
2022/08/31 13:25:15;;;;;;;;;;;29.70;83.40;;;;;;4928924;29;20244;-63
2022/08/31 13:27:49;;;;;;;6.38;2.90;;;28.60;84.20;;;;;;4912286;29;20335;-64
2022/08/31 13:30:19;;;;;;;6.20;2.50;;;29.00;85.00;;;;;;4939654;29;20028;-63